createdAt,value
2023-05-25T00:01:49.474Z,96543.91
2023-05-25T00:04:19.577Z,96538.75
2023-05-25T00:06:49.138Z,96548.09
2023-05-25T00:09:17.199Z,96550.81
2023-05-25T00:11:45.363Z,96552.03
2023-05-25T00:14:13.409Z,96555.03
2023-05-25T00:16:41.538Z,96552.22
2023-05-25T00:19:10.766Z,96555.13
2023-05-25T00:21:39.196Z,96557.50
2023-05-25T00:24:08.953Z,96556.03
2023-05-25T00:26:36.964Z,96558.16
2023-05-25T00:29:05.181Z,96560.31
2023-05-25T00:31:35.585Z,96563.00
2023-05-25T00:34:03.799Z,96562.47
2023-05-25T00:36:31.779Z,96553.28
2023-05-25T00:38:59.784Z,96551.69
2023-05-25T00:41:29.175Z,96554.69
2023-05-25T00:43:57.203Z,96563.88
2023-05-25T00:46:25.250Z,96558.06
2023-05-25T00:48:53.592Z,96563.78
2023-05-25T00:51:21.673Z,96559.63
2023-05-25T00:53:49.702Z,96562.72
2023-05-25T00:56:20.244Z,96570.34
2023-05-25T00:58:49.843Z,96559.75
2023-05-25T01:01:17.871Z,96558.44
2023-05-25T01:03:47.855Z,96556.56
2023-05-25T01:06:16.946Z,96555.00
2023-05-25T01:08:46.432Z,96552.00
2023-05-25T01:11:14.388Z,96539.91
2023-05-25T01:13:42.770Z,96532.09
2023-05-25T01:16:12.208Z,96536.81
2023-05-25T01:18:41.921Z,96529.09
2023-05-25T01:21:14.117Z,96532.66
2023-05-25T01:23:44.165Z,96529.22
2023-05-25T01:26:14.830Z,96536.22
2023-05-25T01:28:46.481Z,96537.38
2023-05-25T01:31:14.782Z,96543.13
2023-05-25T01:33:43.043Z,96547.75
2023-05-25T01:36:12.526Z,96546.44
2023-05-25T01:38:40.927Z,96546.38
2023-05-25T01:41:09.122Z,96551.31
2023-05-25T01:43:37.138Z,96552.25
2023-05-25T01:52:14.427Z,96559.81
2023-05-25T01:54:44.751Z,96560.63
2023-05-25T01:57:13.673Z,96565.53
2023-05-25T01:59:41.977Z,96558.91
2023-05-25T02:02:10.021Z,96556.66
2023-05-25T02:04:38.035Z,96565.22
2023-05-25T02:07:06.380Z,96561.31
2023-05-25T02:09:35.790Z,96561.44
2023-05-25T02:12:03.813Z,96555.34
2023-05-25T02:14:31.880Z,96551.19
2023-05-25T02:17:02.056Z,96547.75
2023-05-25T02:19:30.260Z,96551.97
2023-05-25T02:21:58.279Z,96554.03
2023-05-25T02:24:26.509Z,96552.28
2023-05-25T02:26:55.978Z,96543.75
2023-05-25T02:29:23.944Z,96539.28
2023-05-25T02:31:52.137Z,96539.88
2023-05-25T02:34:20.155Z,96532.94
2023-05-25T02:36:48.170Z,96536.13
2023-05-25T02:39:16.208Z,96531.19
2023-05-25T02:41:44.226Z,96528.44
2023-05-25T02:44:13.610Z,96536.06
2023-05-25T02:46:41.705Z,96535.25
2023-05-25T02:49:09.776Z,96535.16
2023-05-25T02:51:38.020Z,96535.69
2023-05-25T02:54:06.865Z,96547.19
2023-05-25T02:56:34.852Z,96541.63
2023-05-25T02:59:02.940Z,96542.16
2023-05-25T03:01:32.411Z,96536.88
2023-05-25T03:04:00.730Z,96541.13
2023-05-25T03:06:28.792Z,96543.50
2023-05-25T03:08:56.956Z,96539.34
2023-05-25T03:11:24.991Z,96544.94
2023-05-25T03:13:53.069Z,96543.63
2023-05-25T03:16:23.243Z,96550.28
2023-05-25T03:18:52.789Z,96550.34
2023-05-25T03:21:22.410Z,96552.50
2023-05-25T03:23:50.517Z,96548.41
2023-05-25T03:26:18.836Z,96543.13
2023-05-25T03:28:46.805Z,96554.16
2023-05-25T03:31:14.969Z,96550.34
2023-05-25T03:33:43.095Z,96541.28
2023-05-25T03:36:13.713Z,96545.47
2023-05-25T03:38:41.748Z,96536.75
2023-05-25T03:41:09.768Z,96537.13
2023-05-25T03:43:37.794Z,96536.59
2023-05-25T03:46:05.878Z,96543.78
2023-05-25T03:48:33.952Z,96544.25
2023-05-25T03:51:01.947Z,96554.13
2023-05-25T03:53:31.298Z,96554.22
2023-05-25T03:55:59.639Z,96547.16
2023-05-25T03:58:27.625Z,96552.88
2023-05-25T04:00:56.298Z,96551.91
2023-05-25T04:03:24.456Z,96557.81
2023-05-25T04:05:52.544Z,96547.22
2023-05-25T04:08:20.632Z,96555.19
2023-05-25T04:10:50.056Z,96553.41
2023-05-25T04:13:18.081Z,96558.38
2023-05-25T04:15:46.330Z,96557.72
2023-05-25T04:18:14.565Z,96549.00
2023-05-25T04:20:42.743Z,96562.88
2023-05-25T04:23:12.050Z,96569.75
2023-05-25T04:25:40.092Z,96567.22
2023-05-25T04:28:09.408Z,96561.25
2023-05-25T04:30:37.876Z,96567.88
2023-05-25T04:33:06.282Z,96566.84
2023-05-25T04:35:34.272Z,96567.25
2023-05-25T04:38:02.978Z,96561.50
2023-05-25T04:40:33.103Z,96570.16
2023-05-25T04:43:01.190Z,96568.50
2023-05-25T04:45:31.999Z,96570.75
2023-05-25T04:48:01.638Z,96575.50
2023-05-25T04:50:29.857Z,96576.28
2023-05-25T04:52:58.023Z,96576.25
2023-05-25T04:55:26.002Z,96574.47
2023-05-25T04:57:55.004Z,96575.88
2023-05-25T05:00:23.149Z,96581.03
2023-05-25T05:02:52.586Z,96585.81
2023-05-25T05:05:20.812Z,96580.91
2023-05-25T05:07:48.931Z,96589.44
2023-05-25T05:10:17.830Z,96589.22
2023-05-25T05:12:45.809Z,96578.94
2023-05-25T05:15:13.825Z,96579.41
2023-05-25T05:17:41.923Z,96589.28
2023-05-25T05:20:11.794Z,96588.81
2023-05-25T05:22:39.899Z,96596.06
2023-05-25T05:25:08.315Z,96602.44
2023-05-25T05:27:36.355Z,96611.19
2023-05-25T05:30:04.604Z,96607.06
2023-05-25T05:32:32.634Z,96608.00
2023-05-25T05:35:01.073Z,96613.38
2023-05-25T05:37:30.679Z,96611.53
2023-05-25T05:39:58.670Z,96613.59
2023-05-25T05:42:26.812Z,96610.66
2023-05-25T05:44:54.792Z,96611.09
2023-05-25T05:47:22.865Z,96618.81
2023-05-25T05:49:50.883Z,96616.78
2023-05-25T05:52:18.914Z,96609.72
2023-05-25T05:54:48.235Z,96618.47
2023-05-25T05:57:16.274Z,96621.06
2023-05-25T05:59:44.264Z,96622.69
2023-05-25T06:02:12.408Z,96622.38
2023-05-25T06:04:41.364Z,96620.28
2023-05-25T06:07:09.453Z,96615.78
2023-05-25T06:09:37.504Z,96620.75
2023-05-25T06:12:07.309Z,96627.63
2023-05-25T06:14:35.577Z,96623.72
2023-05-25T06:17:03.634Z,96631.06
2023-05-25T06:19:31.738Z,96616.94
2023-05-25T06:21:59.839Z,96634.88
2023-05-25T06:24:27.858Z,96638.44
2023-05-25T06:26:55.897Z,96637.31
2023-05-25T06:29:25.403Z,96635.00
2023-05-25T06:31:53.401Z,96633.28
2023-05-25T06:34:21.498Z,96644.06
2023-05-25T06:36:49.545Z,96644.69
2023-05-25T06:39:17.665Z,96650.75
2023-05-25T06:41:45.733Z,96647.53
2023-05-25T06:44:15.420Z,96648.06
2023-05-25T06:46:45.271Z,96658.00
2023-05-25T06:49:25.437Z,96652.59
2023-05-25T06:51:53.418Z,96649.91
2023-05-25T06:54:21.433Z,96658.19
2023-05-25T06:56:49.421Z,96654.00
2023-05-25T06:59:18.406Z,96655.34
2023-05-25T07:01:48.384Z,96655.94
2023-05-25T07:04:16.426Z,96654.28
2023-05-25T07:06:44.495Z,96653.41
2023-05-25T07:09:12.759Z,96652.28
2023-05-25T07:11:40.774Z,96663.75
2023-05-25T07:14:08.737Z,96662.66
2023-05-25T07:16:36.903Z,96655.69
2023-05-25T07:19:06.340Z,96659.75
2023-05-25T07:21:34.385Z,96659.28
2023-05-25T07:24:02.453Z,96656.28
2023-05-25T07:26:31.912Z,96658.81
2023-05-25T07:28:59.980Z,96652.47
2023-05-25T07:31:28.039Z,96651.84
2023-05-25T07:33:56.444Z,96653.28
2023-05-25T07:36:25.823Z,96660.81
2023-05-25T07:38:53.974Z,96657.63
2023-05-25T07:41:22.025Z,96668.31
2023-05-25T07:43:50.063Z,96660.38
2023-05-25T07:46:21.052Z,96656.81
2023-05-25T07:48:49.141Z,96666.78
2023-05-25T07:51:17.168Z,96661.81
2023-05-25T07:53:46.548Z,96674.41
2023-05-25T07:56:14.562Z,96679.50
2023-05-25T07:58:42.555Z,96687.75
2023-05-25T08:01:10.538Z,96678.63
2023-05-25T08:06:24.351Z,96692.56
2023-05-25T08:08:53.892Z,96689.16
2023-05-25T08:11:24.170Z,96700.28
2023-05-25T08:13:52.299Z,96702.28
2023-05-25T08:16:20.416Z,96700.06
2023-05-25T08:18:48.482Z,96694.91
2023-05-25T08:21:16.453Z,96703.50
2023-05-25T08:23:44.446Z,96700.94
2023-05-25T08:26:34.119Z,96687.59
2023-05-25T08:29:02.443Z,96694.78
2023-05-25T08:31:30.925Z,96694.28
2023-05-25T08:33:59.062Z,96691.81
2023-05-25T08:36:27.379Z,96695.25
2023-05-25T08:38:55.407Z,96703.66
2023-05-25T08:41:24.897Z,96708.56
2023-05-25T08:43:52.866Z,96705.88
2023-05-25T08:46:25.299Z,96709.69
2023-05-25T08:48:53.422Z,96704.88
2023-05-25T08:51:21.525Z,96704.50
2023-05-25T08:53:49.565Z,96711.31
2023-05-25T08:56:19.186Z,96710.53
2023-05-25T08:58:54.268Z,96713.16
2023-05-25T09:01:22.388Z,96720.81
2023-05-25T09:03:51.008Z,96721.69
2023-05-25T09:06:19.103Z,96719.50
2023-05-25T09:08:47.244Z,96731.09
2023-05-25T09:11:17.390Z,96735.53
2023-05-25T09:13:59.237Z,96722.41
2023-05-25T09:16:27.284Z,96712.78
2023-05-25T09:18:55.324Z,96722.16
2023-05-25T09:21:23.321Z,96719.25
2023-05-25T09:23:51.392Z,96724.78
2023-05-25T09:26:19.544Z,96728.41
2023-05-25T09:28:48.045Z,96733.88
2023-05-25T09:31:17.657Z,96717.59
2023-05-25T09:33:46.042Z,96727.41
2023-05-25T09:36:15.329Z,96737.22
2023-05-25T09:38:43.581Z,96738.91
2023-05-25T09:41:11.720Z,96740.91
2023-05-25T09:43:44.970Z,96743.00
2023-05-25T09:46:18.545Z,96744.38
2023-05-25T09:48:48.685Z,96739.47
2023-05-25T09:51:16.670Z,96736.72
2023-05-25T09:53:45.058Z,96734.28
2023-05-25T09:56:13.230Z,96742.16
2023-05-25T09:58:41.958Z,96742.88
2023-05-25T10:01:10.016Z,96746.13
2023-05-25T10:03:43.697Z,96733.69
2023-05-25T10:06:14.705Z,96736.84
2023-05-25T10:08:42.954Z,96744.78
2023-05-25T10:11:11.085Z,96744.06
2023-05-25T10:13:39.259Z,96731.75
2023-05-25T10:16:07.440Z,96733.09
2023-05-25T10:18:36.002Z,96741.00
2023-05-25T10:21:06.882Z,96736.00
2023-05-25T10:23:37.069Z,96739.56
2023-05-25T10:26:05.368Z,96731.25
2023-05-25T10:28:35.314Z,96736.16
2023-05-25T10:31:03.481Z,96731.06
2023-05-25T10:36:10.655Z,96731.16
2023-05-25T10:38:40.276Z,96735.34
2023-05-25T10:41:09.656Z,96736.16
2023-05-25T10:43:37.686Z,96736.69
2023-05-25T10:46:05.716Z,96726.16
2023-05-25T10:48:37.467Z,96719.81
2023-05-25T10:51:09.037Z,96724.81
2023-05-25T10:53:38.049Z,96728.91
2023-05-25T10:56:06.737Z,96731.00
2023-05-25T10:58:35.152Z,96736.06
2023-05-25T11:01:03.682Z,96738.41
2023-05-25T11:03:46.808Z,96731.25
2023-05-25T11:06:16.635Z,96726.13
2023-05-25T11:08:51.249Z,96727.66
2023-05-25T11:11:19.277Z,96735.31
2023-05-25T11:13:47.536Z,96732.19
2023-05-25T11:16:17.733Z,96725.19
2023-05-25T11:18:47.178Z,96726.81
2023-05-25T11:21:18.676Z,96725.69
2023-05-25T11:23:56.855Z,96728.31
2023-05-25T11:26:26.107Z,96723.25
2023-05-25T11:28:54.395Z,96725.97
2023-05-25T11:31:24.384Z,96716.97
2023-05-25T11:33:57.248Z,96717.53
2023-05-25T11:36:26.889Z,96714.41
2023-05-25T11:39:04.866Z,96713.97
2023-05-25T11:41:37.528Z,96710.13
2023-05-25T11:44:06.036Z,96698.25
2023-05-25T11:46:34.861Z,96692.63
2023-05-25T11:49:03.263Z,96700.03
2023-05-25T11:51:32.634Z,96711.91
2023-05-25T11:54:00.653Z,96706.41
2023-05-25T11:56:35.566Z,96696.00
2023-05-25T11:59:04.398Z,96700.19
2023-05-25T12:01:32.863Z,96698.75
2023-05-25T12:04:06.174Z,96696.81
2023-05-25T12:06:36.935Z,96679.50
2023-05-25T12:09:06.353Z,96689.13
2023-05-25T12:11:34.905Z,96680.69
2023-05-25T12:14:05.048Z,96694.75
2023-05-25T12:16:33.091Z,96691.97
2023-05-25T12:19:02.024Z,96682.22
2023-05-25T12:21:30.022Z,96686.41
2023-05-25T12:23:59.519Z,96683.25
2023-05-25T12:26:29.548Z,96678.41
2023-05-25T12:29:01.189Z,96686.84
2023-05-25T12:31:29.902Z,96679.28
2023-05-25T12:34:07.312Z,96692.09
2023-05-25T12:36:45.720Z,96686.84
2023-05-25T12:39:15.753Z,96685.59
2023-05-25T12:41:47.314Z,96675.66
2023-05-25T12:44:19.086Z,96679.94
2023-05-25T12:46:47.099Z,96677.41
2023-05-25T12:49:28.136Z,96683.78
2023-05-25T12:51:56.132Z,96686.47
2023-05-25T12:54:38.452Z,96678.97
2023-05-25T12:57:06.883Z,96679.78
2023-05-25T12:59:35.491Z,96677.34
2023-05-25T13:02:03.690Z,96673.50
2023-05-25T13:04:31.772Z,96671.41
2023-05-25T13:06:59.871Z,96659.78
2023-05-25T13:09:27.980Z,96663.53
2023-05-25T13:11:57.542Z,96661.75
2023-05-25T13:14:25.663Z,96668.78
2023-05-25T13:16:54.184Z,96661.97
2023-05-25T13:19:22.764Z,96657.59
2023-05-25T13:21:51.912Z,96658.72
2023-05-25T13:24:20.594Z,96657.63
2023-05-25T13:26:51.112Z,96660.59
2023-05-25T13:29:20.717Z,96664.34
2023-05-25T13:31:48.753Z,96646.22
2023-05-25T13:34:17.832Z,96655.09
2023-05-25T13:36:46.118Z,96641.63
2023-05-25T13:39:14.868Z,96640.72
2023-05-25T13:41:43.818Z,96648.28
2023-05-25T13:44:15.142Z,96634.81
2023-05-25T13:46:46.806Z,96637.38
2023-05-25T13:49:16.344Z,96641.88
2023-05-25T13:51:44.411Z,96636.13
2023-05-25T13:54:13.679Z,96634.31
2023-05-25T13:56:42.418Z,96633.56
2023-05-25T13:59:10.621Z,96632.88
2023-05-25T14:01:38.767Z,96642.13
2023-05-25T14:04:08.260Z,96623.66
2023-05-25T14:06:36.466Z,96632.06
2023-05-25T14:09:04.586Z,96634.63
2023-05-25T14:11:32.701Z,96634.25
2023-05-25T14:14:00.762Z,96628.75
2023-05-25T14:16:28.899Z,96634.31
2023-05-25T14:18:57.561Z,96626.34
2023-05-25T14:21:29.923Z,96630.81
2023-05-25T14:24:00.386Z,96637.00
2023-05-25T14:26:29.252Z,96622.59
2023-05-25T14:28:57.534Z,96627.03
2023-05-25T14:31:25.612Z,96629.50
2023-05-25T14:33:53.854Z,96628.91
2023-05-25T14:36:21.933Z,96622.00
2023-05-25T14:38:51.350Z,96621.47
2023-05-25T14:41:19.386Z,96616.22
2023-05-25T14:43:47.378Z,96634.34
2023-05-25T14:46:15.506Z,96617.44
2023-05-25T14:48:43.584Z,96622.09
2023-05-25T14:51:11.596Z,96617.44
2023-05-25T14:53:39.636Z,96617.81
2023-05-25T14:56:11.108Z,96628.75
2023-05-25T14:58:39.457Z,96617.16
2023-05-25T15:01:07.497Z,96613.19
2023-05-25T15:03:35.638Z,96613.09
2023-05-25T15:06:03.784Z,96620.44
2023-05-25T15:08:31.785Z,96613.38
2023-05-25T15:10:59.781Z,96618.91
2023-05-25T15:13:29.115Z,96615.16
2023-05-25T15:15:57.844Z,96621.50
2023-05-25T15:18:25.990Z,96621.84
2023-05-25T15:20:54.068Z,96619.88
2023-05-25T15:23:22.169Z,96622.72
2023-05-25T15:25:50.120Z,96620.38
2023-05-25T15:28:18.107Z,96614.50
2023-05-25T15:30:47.728Z,96614.72
2023-05-25T15:33:15.773Z,96619.34
2023-05-25T15:35:44.014Z,96624.69
2023-05-25T15:38:12.109Z,96621.88
2023-05-25T15:40:40.256Z,96618.19
2023-05-25T15:43:08.246Z,96618.75
2023-05-25T15:45:36.226Z,96608.28
2023-05-25T15:48:09.226Z,96614.00
2023-05-25T15:50:39.469Z,96612.19
2023-05-25T15:53:07.523Z,96614.19
2023-05-25T15:55:35.657Z,96602.59
2023-05-25T15:58:03.660Z,96608.03
2023-05-25T16:00:32.953Z,96604.38
2023-05-25T16:03:01.093Z,96608.53
2023-05-25T16:05:30.864Z,96611.13
2023-05-25T16:07:58.881Z,96610.13
2023-05-25T16:10:26.921Z,96610.13
2023-05-25T16:12:54.954Z,96614.34
2023-05-25T16:15:24.101Z,96615.81
2023-05-25T16:17:52.149Z,96611.81
2023-05-25T16:20:20.196Z,96609.94
2023-05-25T16:22:49.578Z,96615.53
2023-05-25T16:25:17.564Z,96613.81
2023-05-25T16:27:45.567Z,96620.06
2023-05-25T16:30:13.930Z,96618.56
2023-05-25T16:32:42.020Z,96612.56
2023-05-25T16:35:10.362Z,96617.88
2023-05-25T16:37:38.656Z,96622.22
2023-05-25T16:40:09.056Z,96623.22
2023-05-25T16:42:37.060Z,96622.00
2023-05-25T16:45:05.421Z,96620.69
2023-05-25T16:47:33.455Z,96615.19
2023-05-25T16:50:01.479Z,96618.50
2023-05-25T16:52:29.574Z,96622.16
2023-05-25T16:54:59.120Z,96620.66
2023-05-25T16:57:28.552Z,96618.22
2023-05-25T16:59:56.528Z,96618.47
2023-05-25T17:02:24.612Z,96613.28
2023-05-25T17:04:52.676Z,96624.53
2023-05-25T17:07:20.686Z,96621.16
2023-05-25T17:09:48.695Z,96621.56
2023-05-25T17:12:16.859Z,96622.28
2023-05-25T17:14:46.267Z,96619.97
2023-05-25T17:17:14.549Z,96616.72
2023-05-25T17:19:42.546Z,96620.47
2023-05-25T17:22:10.672Z,96626.88
2023-05-25T17:24:38.649Z,96625.16
2023-05-25T17:27:06.926Z,96620.28
2023-05-25T17:29:34.937Z,96626.38
2023-05-25T17:32:04.420Z,96628.13
2023-05-25T17:34:32.480Z,96625.94
2023-05-25T17:37:00.573Z,96625.50
2023-05-25T17:39:28.724Z,96617.75
2023-05-25T17:41:56.681Z,96616.72
2023-05-25T17:44:26.052Z,96622.34
2023-05-25T17:46:54.069Z,96622.56
2023-05-25T17:49:23.471Z,96623.59
2023-05-25T17:51:51.475Z,96626.38
2023-05-25T17:54:25.416Z,96633.22
2023-05-25T17:56:53.580Z,96627.06
2023-05-25T17:59:21.610Z,96627.84
2023-05-25T18:01:49.651Z,96634.72
2023-05-25T18:04:19.502Z,96633.53
2023-05-25T18:06:51.536Z,96640.50
2023-05-25T18:09:19.616Z,96635.16
2023-05-25T18:11:47.806Z,96635.09
2023-05-25T18:14:15.871Z,96639.91
2023-05-25T18:16:44.819Z,96641.03
2023-05-25T18:19:15.244Z,96640.97
2023-05-25T18:21:43.232Z,96651.06
2023-05-25T18:24:12.615Z,96648.19
2023-05-25T18:26:41.689Z,96644.41
2023-05-25T18:29:09.726Z,96646.25
2023-05-25T18:31:37.773Z,96650.88
2023-05-25T18:34:06.878Z,96654.88
2023-05-25T18:36:34.920Z,96648.88
2023-05-25T18:39:02.961Z,96649.56
2023-05-25T18:41:32.386Z,96655.91
2023-05-25T18:44:00.411Z,96666.91
2023-05-25T18:46:29.127Z,96656.28
2023-05-25T18:48:57.195Z,96664.16
2023-05-25T18:51:25.990Z,96659.44
2023-05-25T18:53:54.764Z,96660.88
2023-05-25T18:56:22.771Z,96665.69
2023-05-25T18:58:54.710Z,96668.72
2023-05-25T19:01:22.752Z,96664.69
2023-05-25T19:03:51.009Z,96669.75
2023-05-25T19:06:19.214Z,96661.41
2023-05-25T19:08:47.226Z,96662.25
2023-05-25T19:11:15.558Z,96666.25
2023-05-25T19:13:43.566Z,96668.72
2023-05-25T19:16:13.013Z,96673.56
2023-05-25T19:18:41.074Z,96683.50
2023-05-25T19:21:09.094Z,96690.59
2023-05-25T19:23:37.180Z,96691.13
2023-05-25T19:26:05.176Z,96689.66
2023-05-25T19:28:33.177Z,96695.88
2023-05-25T19:31:01.310Z,96698.03
2023-05-25T19:33:30.647Z,96705.44
2023-05-25T19:35:58.638Z,96706.56
2023-05-25T19:38:31.453Z,96715.88
2023-05-25T19:41:05.913Z,96708.88
2023-05-25T19:43:34.005Z,96706.19
2023-05-25T19:46:02.016Z,96707.09
2023-05-25T19:48:31.871Z,96715.66
2023-05-25T19:51:00.961Z,96718.19
2023-05-25T19:53:30.468Z,96726.53
2023-05-25T19:55:58.503Z,96730.16
2023-05-25T19:58:26.452Z,96736.72
2023-05-25T20:00:54.638Z,96731.59
2023-05-25T20:03:22.812Z,96736.59
2023-05-25T20:05:52.329Z,96738.41
2023-05-25T20:08:20.356Z,96735.44
2023-05-25T20:10:48.351Z,96739.03
2023-05-25T20:13:16.406Z,96740.84
2023-05-25T20:15:44.687Z,96747.66
2023-05-25T20:18:12.884Z,96740.00
2023-05-25T20:20:40.995Z,96751.78
2023-05-25T20:23:10.693Z,96747.94
2023-05-25T20:25:38.703Z,96746.63
2023-05-25T20:28:06.808Z,96744.78
2023-05-25T20:30:34.897Z,96745.81
2023-05-25T20:33:03.093Z,96750.84
2023-05-25T20:35:31.206Z,96750.16
2023-05-25T20:37:59.199Z,96753.22
2023-05-25T20:40:28.622Z,96750.03
2023-05-25T20:43:01.303Z,96750.78
2023-05-25T20:45:44.559Z,96749.34
2023-05-25T20:48:12.647Z,96757.31
2023-05-25T20:50:40.684Z,96758.19
2023-05-25T20:53:08.754Z,96756.88
2023-05-25T20:55:38.082Z,96756.72
2023-05-25T20:58:06.093Z,96754.06
2023-05-25T21:00:34.113Z,96749.97
2023-05-25T21:03:02.313Z,96755.50
2023-05-25T21:05:30.435Z,96763.00
2023-05-25T21:07:58.462Z,96751.25
2023-05-25T21:10:26.479Z,96755.81
2023-05-25T21:12:56.064Z,96758.19
2023-05-25T21:15:24.105Z,96765.03
2023-05-25T21:17:52.250Z,96762.91
2023-05-25T21:20:20.546Z,96757.97
2023-05-25T21:22:48.594Z,96753.63
2023-05-25T21:25:16.747Z,96758.22
2023-05-25T21:27:44.764Z,96757.97
2023-05-25T21:30:14.518Z,96764.22
2023-05-25T21:32:42.560Z,96763.13
2023-05-25T21:35:10.731Z,96765.63
2023-05-25T21:37:38.749Z,96763.16
2023-05-25T21:40:07.248Z,96762.88
2023-05-25T21:42:35.204Z,96762.88
2023-05-25T21:45:03.421Z,96761.50
2023-05-25T21:47:32.904Z,96761.78
2023-05-25T21:50:00.925Z,96762.06
2023-05-25T21:52:28.945Z,96758.25
2023-05-25T21:54:57.511Z,96757.16
2023-05-25T21:57:25.567Z,96757.41
2023-05-25T21:59:53.670Z,96767.22
2023-05-25T22:02:21.751Z,96769.06
2023-05-25T22:04:51.192Z,96770.91
2023-05-25T22:07:19.180Z,96765.59
2023-05-25T22:09:47.228Z,96767.38
2023-05-25T22:12:15.305Z,96766.91
2023-05-25T22:14:43.288Z,96761.03
2023-05-25T22:17:11.388Z,96761.91
2023-05-25T22:19:39.471Z,96766.81
2023-05-25T22:22:08.805Z,96769.63
2023-05-25T22:24:37.114Z,96770.00
2023-05-25T22:27:06.069Z,96765.59
2023-05-25T22:29:34.075Z,96765.44
2023-05-25T22:32:02.269Z,96767.63
2023-05-25T22:34:30.270Z,96763.81
2023-05-25T22:36:58.265Z,96771.22
2023-05-25T22:39:27.608Z,96769.78
2023-05-25T22:41:55.590Z,96770.03
2023-05-25T22:44:23.621Z,96766.53
2023-05-25T22:46:51.646Z,96771.34
2023-05-25T22:49:19.721Z,96765.28
2023-05-25T22:51:47.724Z,96766.81
2023-05-25T22:54:15.804Z,96769.63
2023-05-25T22:56:45.184Z,96768.69
2023-05-25T22:59:13.201Z,96761.84
2023-05-25T23:01:41.235Z,96764.97
2023-05-25T23:04:09.354Z,96765.81
2023-05-25T23:06:37.628Z,96768.63
2023-05-25T23:09:05.634Z,96771.00
2023-05-25T23:11:33.644Z,96770.13
2023-05-25T23:14:02.976Z,96770.94
2023-05-25T23:16:31.038Z,96769.84
2023-05-25T23:18:59.057Z,96766.22
2023-05-25T23:21:27.032Z,96756.81
2023-05-25T23:23:55.023Z,96753.84
2023-05-25T23:26:23.018Z,96754.81
2023-05-25T23:28:51.131Z,96751.59
2023-05-25T23:31:20.536Z,96758.03
2023-05-25T23:33:48.616Z,96753.97
2023-05-25T23:36:16.628Z,96766.91
2023-05-25T23:38:44.597Z,96766.81
2023-05-25T23:41:12.559Z,96771.00
2023-05-25T23:43:40.572Z,96767.19
2023-05-25T23:46:08.574Z,96769.91
2023-05-25T23:48:37.928Z,96759.31
2023-05-25T23:51:07.495Z,96765.25
2023-05-25T23:53:35.508Z,96760.91
2023-05-25T23:56:03.530Z,96764.69
2023-05-25T23:58:31.555Z,96766.75
